createdAt,value
2023-04-23T00:00:25.767Z,6.77
2023-04-23T00:02:54.407Z,6.67
2023-04-23T00:05:23.414Z,6.46
2023-04-23T00:07:50.536Z,6.56
2023-04-23T00:10:18.302Z,6.56
2023-04-23T00:12:45.940Z,6.46
2023-04-23T00:15:14.242Z,6.43
2023-04-23T00:17:41.284Z,6.41
2023-04-23T00:20:09.318Z,6.73
2023-04-23T00:22:36.585Z,6.71
2023-04-23T00:25:03.958Z,6.82
2023-04-23T00:27:31.022Z,6.82
2023-04-23T00:29:58.190Z,6.66
2023-04-23T00:32:25.221Z,6.31
2023-04-23T00:34:52.378Z,6.15
2023-04-23T00:37:19.430Z,5.92
2023-04-23T00:40:54.594Z,5.82
2023-04-23T00:43:21.603Z,5.51
2023-04-23T00:45:49.507Z,5.71
2023-04-23T00:48:16.927Z,5.96
2023-04-23T00:50:43.931Z,5.78
2023-04-23T00:53:11.077Z,5.49
2023-04-23T00:55:38.216Z,5.64
2023-04-23T00:58:06.952Z,5.50
2023-04-23T01:00:40.077Z,5.34
2023-04-23T01:03:07.309Z,5.20
2023-04-23T01:05:34.462Z,5.23
2023-04-23T01:08:01.549Z,5.26
2023-04-23T01:10:28.599Z,5.32
2023-04-23T01:12:55.662Z,5.49
2023-04-23T01:15:22.660Z,5.67
2023-04-23T01:17:49.861Z,5.81
2023-04-23T01:20:17.554Z,5.64
2023-04-23T01:22:44.606Z,5.54
2023-04-23T01:25:11.751Z,5.61
2023-04-23T01:27:39.196Z,5.66
2023-04-23T01:30:07.711Z,5.45
2023-04-23T01:32:35.585Z,5.35
2023-04-23T01:35:04.708Z,5.34
2023-04-23T01:37:33.506Z,5.47
2023-04-23T01:40:01.208Z,5.52
2023-04-23T01:42:28.457Z,5.63
2023-04-23T01:44:55.587Z,5.65
2023-04-23T01:47:22.858Z,5.62
2023-04-23T01:49:50.064Z,5.64
2023-04-23T01:52:17.072Z,5.67
2023-04-23T01:54:44.244Z,5.61
2023-04-23T01:57:11.493Z,5.66
2023-04-23T01:59:40.509Z,5.57
2023-04-23T02:02:11.172Z,5.40
2023-04-23T02:04:41.248Z,5.41
2023-04-23T02:07:09.130Z,5.40
2023-04-23T02:09:36.174Z,5.35
2023-04-23T02:12:03.347Z,5.13
2023-04-23T02:14:30.561Z,5.08
2023-04-23T02:16:57.932Z,5.01
2023-04-23T02:19:25.092Z,5.06
2023-04-23T02:21:52.225Z,5.01
2023-04-23T02:24:19.295Z,5.05
2023-04-23T02:26:47.544Z,5.04
2023-04-23T02:29:15.735Z,5.09
2023-04-23T02:31:42.832Z,5.04
2023-04-23T02:34:09.876Z,5.07
2023-04-23T02:36:36.944Z,5.02
2023-04-23T02:39:04.289Z,4.99
2023-04-23T02:41:31.404Z,4.91
2023-04-23T02:43:58.684Z,4.87
2023-04-23T02:46:25.746Z,4.78
2023-04-23T02:48:52.762Z,4.86
2023-04-23T02:51:19.882Z,4.88
2023-04-23T02:53:47.008Z,4.95
2023-04-23T02:56:14.083Z,5.03
2023-04-23T02:58:41.206Z,5.01
2023-04-23T03:01:08.284Z,4.96
2023-04-23T03:03:35.770Z,5.02
2023-04-23T03:06:06.823Z,5.03
2023-04-23T03:08:34.085Z,5.02
2023-04-23T03:11:01.077Z,5.11
2023-04-23T03:13:28.392Z,4.98
2023-04-23T03:15:56.269Z,4.94
2023-04-23T03:18:23.449Z,5.23
2023-04-23T03:20:53.444Z,5.31
2023-04-23T03:23:20.572Z,5.27
2023-04-23T03:25:48.547Z,5.23
2023-04-23T03:28:15.714Z,5.23
2023-04-23T03:30:43.141Z,5.18
2023-04-23T03:33:10.212Z,5.47
2023-04-23T03:35:37.755Z,5.56
2023-04-23T03:38:09.459Z,5.67
2023-04-23T03:40:37.196Z,5.62
2023-04-23T03:43:06.905Z,5.56
2023-04-23T03:45:53.895Z,5.68
2023-04-23T03:48:21.899Z,5.80
2023-04-23T03:50:49.533Z,5.84
2023-04-23T03:53:31.986Z,6.00
2023-04-23T03:56:17.848Z,6.20
2023-04-23T03:58:54.503Z,6.29
2023-04-23T04:01:22.495Z,6.56
2023-04-23T04:03:50.915Z,6.71
2023-04-23T04:06:18.068Z,6.78
2023-04-23T04:08:45.107Z,6.98
2023-04-23T04:11:12.166Z,7.05
2023-04-23T04:13:39.169Z,7.10
2023-04-23T04:16:06.579Z,7.24
2023-04-23T04:18:33.700Z,7.40
2023-04-23T04:21:01.020Z,7.45
2023-04-23T04:23:28.804Z,7.59
2023-04-23T04:25:57.827Z,7.68
2023-04-23T04:28:25.452Z,7.75
2023-04-23T04:30:57.779Z,7.74
2023-04-23T04:33:26.135Z,7.81
2023-04-23T04:35:54.907Z,7.93
2023-04-23T04:38:22.424Z,8.11
2023-04-23T04:40:50.670Z,8.24
2023-04-23T04:43:18.585Z,8.49
2023-04-23T04:45:45.601Z,8.71
2023-04-23T04:48:12.705Z,8.93
2023-04-23T04:50:39.895Z,9.16
2023-04-23T04:53:06.870Z,9.39
2023-04-23T04:55:33.893Z,9.58
2023-04-23T04:58:00.944Z,9.70
2023-04-23T05:00:29.880Z,9.79
2023-04-23T05:03:00.102Z,9.94
2023-04-23T05:05:27.900Z,10.13
2023-04-23T05:07:55.237Z,10.20
2023-04-23T05:10:22.305Z,10.35
2023-04-23T05:12:52.093Z,10.53
2023-04-23T05:15:19.331Z,10.72
2023-04-23T05:17:46.532Z,10.81
2023-04-23T05:20:14.435Z,10.98
2023-04-23T05:22:42.807Z,11.10
2023-04-23T05:25:12.264Z,11.25
2023-04-23T05:27:40.029Z,11.38
2023-04-23T05:30:09.602Z,11.52
2023-04-23T05:32:37.218Z,11.48
2023-04-23T05:35:05.051Z,11.61
2023-04-23T05:37:32.185Z,11.63
2023-04-23T05:43:12.827Z,12.16
2023-04-23T05:45:39.886Z,12.15
2023-04-23T05:48:07.059Z,12.31
2023-04-23T05:50:34.058Z,12.37
2023-04-23T05:53:01.105Z,12.35
2023-04-23T05:55:28.161Z,12.32
2023-04-23T05:57:55.135Z,12.37
2023-04-23T06:00:22.209Z,12.43
2023-04-23T06:02:49.559Z,12.48
2023-04-23T06:05:16.973Z,12.62
2023-04-23T06:07:44.099Z,12.57
2023-04-23T06:10:43.652Z,12.74
2023-04-23T06:13:11.232Z,12.96
2023-04-23T06:15:38.818Z,13.15
2023-04-23T06:18:06.347Z,13.08
2023-04-23T06:20:33.433Z,12.98
2023-04-23T06:23:00.951Z,13.28
2023-04-23T06:25:27.947Z,13.87
2023-04-23T06:27:54.962Z,13.65
2023-04-23T06:30:25.613Z,13.43
2023-04-23T06:32:53.311Z,13.77
2023-04-23T06:35:20.751Z,13.61
2023-04-23T06:37:47.735Z,14.14
2023-04-23T06:40:15.158Z,14.87
2023-04-23T06:42:42.818Z,15.20
2023-04-23T06:45:17.861Z,15.42
2023-04-23T06:47:45.371Z,15.30
2023-04-23T06:50:12.486Z,15.48
2023-04-23T06:52:39.561Z,15.58
2023-04-23T06:55:07.446Z,15.81
2023-04-23T06:57:34.455Z,15.98
2023-04-23T07:00:01.549Z,16.14
2023-04-23T07:02:34.837Z,16.47
2023-04-23T07:05:34.090Z,16.63
2023-04-23T07:08:01.223Z,16.37
2023-04-23T07:10:28.486Z,16.46
2023-04-23T07:12:55.529Z,16.66
2023-04-23T07:15:22.752Z,16.67
2023-04-23T07:17:49.873Z,16.68
2023-04-23T07:20:16.953Z,16.47
2023-04-23T07:22:44.454Z,16.39
2023-04-23T07:25:11.558Z,16.76
2023-04-23T07:27:38.594Z,17.05
2023-04-23T07:30:06.708Z,17.00
2023-04-23T07:32:33.762Z,17.14
2023-04-23T07:35:00.866Z,17.25
2023-04-23T07:37:27.989Z,17.07
2023-04-23T07:39:55.041Z,16.79
2023-04-23T07:42:22.114Z,16.73
2023-04-23T07:44:49.127Z,17.01
2023-04-23T07:47:16.116Z,17.08
2023-04-23T07:49:43.906Z,16.88
2023-04-23T07:52:11.612Z,17.00
2023-04-23T07:54:38.728Z,16.63
2023-04-23T07:57:05.939Z,16.85
2023-04-23T07:59:33.052Z,17.23
2023-04-23T08:02:00.177Z,17.17
2023-04-23T08:04:27.447Z,17.20
2023-04-23T08:06:54.710Z,16.82
2023-04-23T08:09:21.814Z,17.41
2023-04-23T08:11:48.940Z,17.69
2023-04-23T08:14:16.126Z,17.42
2023-04-23T08:16:43.577Z,17.21
2023-04-23T08:19:10.653Z,16.74
2023-04-23T08:21:39.171Z,17.18
2023-04-23T08:24:08.099Z,17.15
2023-04-23T08:26:35.247Z,16.95
2023-04-23T08:29:03.439Z,16.86
2023-04-23T08:31:30.621Z,17.01
2023-04-23T08:33:58.107Z,17.02
2023-04-23T08:36:26.284Z,16.92
2023-04-23T08:38:53.326Z,16.50
2023-04-23T08:41:23.941Z,16.07
2023-04-23T08:44:02.633Z,16.13
2023-04-23T08:46:33.088Z,15.19
2023-04-23T08:49:03.091Z,14.20
2023-04-23T08:51:30.993Z,14.54
2023-04-23T08:54:03.105Z,14.13
2023-04-23T08:56:30.741Z,12.58
2023-04-23T08:58:58.899Z,11.67
2023-04-23T09:01:26.057Z,11.02
2023-04-23T09:03:54.252Z,10.88
2023-04-23T09:06:22.073Z,10.58
2023-04-23T09:08:49.231Z,10.54
2023-04-23T09:11:18.263Z,10.69
2023-04-23T09:13:45.830Z,10.43
2023-04-23T09:16:12.948Z,10.21
2023-04-23T09:18:40.131Z,9.18
2023-04-23T09:21:07.661Z,9.30
2023-04-23T09:23:34.910Z,9.01
2023-04-23T09:26:06.668Z,9.39
2023-04-23T09:28:37.921Z,8.85
2023-04-23T09:31:08.261Z,8.80
2023-04-23T09:33:36.485Z,9.27
2023-04-23T09:36:15.755Z,9.26
2023-04-23T09:38:42.759Z,9.63
2023-04-23T09:41:29.900Z,9.81
2023-04-23T10:16:35.589Z,9.99
2023-04-23T10:19:13.589Z,10.33
2023-04-23T10:21:50.413Z,11.01
2023-04-23T10:24:23.400Z,11.64
2023-04-23T10:26:54.192Z,12.02
2023-04-23T10:29:30.980Z,12.99
2023-04-23T10:32:00.529Z,13.45
2023-04-23T10:34:29.355Z,14.03
2023-04-23T10:36:57.705Z,14.63
2023-04-23T10:39:29.993Z,15.00
2023-04-23T10:41:59.002Z,15.07
2023-04-23T10:47:13.427Z,16.14
2023-04-23T10:49:40.942Z,16.21
2023-04-23T10:52:20.026Z,16.45
2023-04-23T10:54:50.711Z,16.07
2023-04-23T10:57:17.709Z,16.56
2023-04-23T10:59:56.478Z,17.13
2023-04-23T11:02:24.873Z,16.62
2023-04-23T11:04:57.480Z,16.73
2023-04-23T11:07:32.967Z,17.17
2023-04-23T11:10:11.188Z,17.65
2023-04-23T11:12:39.914Z,17.90
2023-04-23T11:15:12.374Z,17.71
2023-04-23T11:17:39.353Z,17.72
2023-04-23T11:20:14.274Z,17.26
2023-04-23T11:22:48.903Z,17.73
2023-04-23T11:25:28.705Z,18.02
2023-04-23T11:27:58.683Z,17.59
2023-04-23T11:30:30.610Z,18.04
2023-04-23T11:33:00.418Z,18.34
2023-04-23T11:35:28.990Z,18.70
2023-04-23T11:37:57.210Z,18.72
2023-04-23T11:40:24.492Z,18.47
2023-04-23T11:42:53.894Z,17.76
2023-04-23T11:45:29.031Z,16.43
2023-04-23T11:47:59.177Z,16.47
2023-04-23T11:50:31.164Z,15.80
2023-04-23T11:52:58.784Z,16.15
2023-04-23T11:55:26.667Z,15.73
2023-04-23T11:57:53.750Z,15.59
2023-04-23T12:00:23.506Z,15.41
2023-04-23T12:02:52.382Z,15.00
2023-04-23T12:05:29.776Z,15.86
2023-04-23T12:08:20.536Z,16.37
2023-04-23T12:10:52.025Z,16.74
2023-04-23T12:13:36.108Z,16.67
2023-04-23T12:16:05.313Z,17.17
2023-04-23T12:18:33.548Z,17.79
2023-04-23T12:21:07.939Z,17.98
2023-04-23T12:23:36.746Z,17.09
2023-04-23T12:26:04.658Z,16.64
2023-04-23T12:28:31.760Z,16.72
2023-04-23T12:31:03.103Z,17.68
2023-04-23T12:33:31.186Z,17.52
2023-04-23T12:35:58.627Z,16.58
2023-04-23T12:38:27.775Z,17.08
2023-04-23T12:40:56.818Z,17.51
2023-04-23T12:43:25.032Z,18.05
2023-04-23T12:45:53.120Z,18.30
2023-04-23T12:48:20.282Z,17.70
2023-04-23T12:50:48.499Z,17.86
2023-04-23T12:53:15.956Z,18.51
2023-04-23T12:55:44.425Z,17.71
2023-04-23T12:58:11.640Z,18.25
2023-04-23T13:00:39.130Z,18.12
2023-04-23T13:03:06.302Z,17.97
2023-04-23T13:05:33.514Z,18.13
2023-04-23T13:08:00.484Z,17.37
2023-04-23T13:10:27.989Z,17.94
2023-04-23T13:12:55.206Z,17.83
2023-04-23T13:15:22.206Z,17.54
2023-04-23T13:17:49.297Z,17.11
2023-04-23T13:20:16.304Z,16.99
2023-04-23T13:22:43.301Z,17.05
2023-04-23T13:25:10.723Z,16.12
2023-04-23T13:27:37.807Z,16.77
2023-04-23T13:30:06.178Z,17.20
2023-04-23T13:32:33.475Z,17.20
2023-04-23T13:35:02.973Z,16.46
2023-04-23T13:37:31.562Z,15.76
2023-04-23T13:39:58.656Z,16.56
2023-04-23T13:42:25.761Z,16.26
2023-04-23T13:44:52.926Z,16.26
2023-04-23T13:47:20.030Z,16.34
2023-04-23T13:49:48.085Z,15.21
2023-04-23T13:52:15.159Z,15.75
2023-04-23T13:54:42.504Z,15.53
2023-04-23T13:57:09.715Z,15.40
2023-04-23T13:59:36.765Z,15.52
2023-04-23T14:02:03.890Z,15.60
2023-04-23T14:04:31.231Z,15.73
2023-04-23T14:06:58.305Z,15.38
2023-04-23T14:09:25.433Z,15.58
2023-04-23T14:11:52.572Z,15.26
2023-04-23T14:14:19.689Z,15.50
2023-04-23T14:16:46.755Z,15.70
2023-04-23T14:19:13.937Z,15.73
2023-04-23T14:21:41.798Z,15.59
2023-04-23T14:24:16.916Z,15.58
2023-04-23T14:26:49.155Z,15.66
2023-04-23T14:29:28.045Z,15.19
2023-04-23T14:31:55.165Z,15.11
2023-04-23T14:34:22.588Z,15.08
2023-04-23T14:36:49.889Z,15.47
2023-04-23T14:39:17.227Z,15.42
2023-04-23T14:41:44.849Z,15.52
2023-04-23T14:44:11.973Z,15.47
2023-04-23T14:46:39.097Z,15.58
2023-04-23T14:49:06.631Z,15.52
2023-04-23T14:51:33.714Z,15.70
2023-04-23T14:54:00.870Z,15.49
2023-04-23T14:56:27.977Z,15.33
2023-04-23T14:58:55.085Z,15.03
2023-04-23T15:01:22.167Z,15.18
2023-04-23T15:03:49.538Z,15.40
2023-04-23T15:06:16.764Z,14.85
2023-04-23T15:08:43.771Z,15.03
2023-04-23T15:11:15.654Z,14.86
2023-04-23T15:13:42.649Z,15.04
2023-04-23T15:16:36.502Z,15.02
2023-04-23T15:19:11.791Z,14.64
2023-04-23T15:21:39.396Z,14.38
2023-04-23T15:24:07.983Z,14.44
2023-04-23T15:26:36.452Z,14.67
2023-04-23T15:29:04.794Z,14.78
2023-04-23T15:31:32.142Z,14.27
2023-04-23T15:33:59.264Z,14.49
2023-04-23T15:36:26.424Z,14.56
2023-04-23T15:38:53.401Z,14.58
2023-04-23T15:41:20.377Z,14.65
2023-04-23T15:43:48.948Z,14.49
2023-04-23T15:46:16.025Z,14.38
2023-04-23T15:48:44.142Z,14.31
2023-04-23T15:51:11.189Z,14.36
2023-04-23T15:53:38.303Z,14.16
2023-04-23T15:56:05.412Z,14.03
2023-04-23T15:58:32.540Z,13.46
2023-04-23T16:00:59.602Z,13.81
2023-04-23T16:03:26.897Z,13.98
2023-04-23T16:05:54.179Z,14.03
2023-04-23T16:08:22.081Z,13.88
2023-04-23T16:10:49.085Z,13.44
2023-04-23T16:13:16.143Z,13.55
2023-04-23T16:15:43.275Z,13.63
2023-04-23T16:18:10.394Z,13.66
2023-04-23T16:20:37.451Z,13.53
2023-04-23T16:23:04.541Z,13.37
2023-04-23T16:25:31.603Z,12.66
2023-04-23T16:27:58.988Z,13.01
2023-04-23T16:30:26.106Z,12.64
2023-04-23T16:32:53.252Z,12.62
2023-04-23T16:35:20.514Z,12.58
2023-04-23T16:37:47.586Z,12.71
2023-04-23T16:40:15.884Z,12.12
2023-04-23T16:42:43.668Z,12.23
2023-04-23T16:45:11.574Z,12.31
2023-04-23T16:47:38.801Z,12.18
2023-04-23T16:50:06.452Z,12.30
2023-04-23T16:52:33.494Z,12.41
2023-04-23T16:55:00.771Z,12.47
2023-04-23T16:57:28.375Z,12.46
2023-04-23T16:59:55.361Z,12.31
2023-04-23T17:02:22.375Z,12.32
2023-04-23T17:04:49.775Z,12.15
2023-04-23T17:07:17.242Z,12.12
2023-04-23T17:09:44.402Z,12.20
2023-04-23T17:12:11.566Z,12.12
2023-04-23T17:14:38.653Z,11.65
2023-04-23T17:17:05.746Z,11.46
2023-04-23T17:19:33.092Z,11.71
2023-04-23T17:22:01.308Z,11.79
2023-04-23T17:24:28.332Z,11.77
2023-04-23T17:26:55.402Z,11.74
2023-04-23T17:29:22.874Z,11.83
2023-04-23T17:31:50.437Z,11.90
2023-04-23T17:34:17.473Z,11.91
2023-04-23T17:36:44.509Z,11.64
2023-04-23T17:39:11.705Z,11.79
2023-04-23T17:41:38.800Z,11.66
2023-04-23T17:44:05.895Z,11.48
2023-04-23T17:46:33.083Z,11.54
2023-04-23T17:49:00.389Z,11.51
2023-04-23T17:51:27.618Z,11.29
2023-04-23T17:53:54.925Z,11.32
2023-04-23T17:56:22.292Z,10.53
2023-04-23T17:58:49.448Z,10.41
2023-04-23T18:01:17.867Z,10.74
2023-04-23T18:03:45.393Z,10.84
2023-04-23T18:06:12.519Z,11.14
2023-04-23T18:08:41.914Z,11.35
2023-04-23T18:11:09.744Z,11.17
2023-04-23T18:13:36.838Z,11.29
2023-04-23T18:16:04.011Z,11.34
2023-04-23T18:18:31.011Z,11.01
2023-04-23T18:20:58.283Z,10.37
2023-04-23T18:24:08.141Z,10.71
2023-04-23T18:26:35.204Z,10.90
2023-04-23T18:29:02.243Z,11.04
2023-04-23T18:31:29.552Z,11.11
2023-04-23T18:34:03.850Z,11.01
2023-04-23T18:36:33.132Z,10.87
2023-04-23T18:39:00.426Z,10.23
2023-04-23T18:41:31.062Z,9.63
2023-04-23T18:44:00.166Z,9.50
2023-04-23T18:46:30.361Z,9.26
2023-04-23T18:49:07.210Z,9.38
2023-04-23T18:51:43.208Z,9.94
2023-04-23T18:54:14.957Z,10.23
2023-04-23T18:56:42.238Z,9.46
2023-04-23T18:59:09.444Z,9.94
2023-04-23T19:01:36.667Z,10.17
2023-04-23T19:04:03.884Z,9.75
2023-04-23T19:06:31.535Z,9.72
2023-04-23T19:08:59.297Z,9.42
2023-04-23T19:11:30.345Z,9.86
2023-04-23T19:13:57.499Z,10.07
2023-04-23T19:16:24.545Z,10.27
2023-04-23T19:18:51.584Z,10.36
2023-04-23T19:21:18.714Z,10.40
2023-04-23T19:23:46.182Z,10.37
2023-04-23T19:26:46.042Z,10.66
2023-04-23T19:29:13.247Z,10.74
2023-04-23T19:31:40.358Z,10.19
2023-04-23T19:34:07.733Z,10.30
2023-04-23T19:36:34.949Z,10.38
2023-04-23T19:39:02.215Z,10.43
2023-04-23T19:41:29.306Z,10.41
2023-04-23T19:43:56.487Z,10.39
2023-04-23T19:46:23.541Z,10.46
2023-04-23T19:48:50.591Z,10.52
2023-04-23T19:51:19.753Z,10.63
2023-04-23T19:53:46.809Z,10.56
2023-04-23T19:56:15.266Z,10.63
2023-04-23T19:58:42.732Z,10.46
2023-04-23T20:01:10.767Z,10.18
2023-04-23T20:03:38.051Z,9.63
2023-04-23T20:06:05.218Z,9.88
2023-04-23T20:08:42.051Z,10.14
2023-04-23T20:11:11.924Z,10.03
2023-04-23T20:13:38.993Z,9.94
2023-04-23T20:16:05.966Z,10.11
2023-04-23T20:18:35.756Z,10.37
2023-04-23T20:21:02.875Z,10.27
2023-04-23T20:23:29.871Z,10.39
2023-04-23T20:26:28.452Z,10.39
2023-04-23T20:28:55.692Z,10.21
2023-04-23T20:31:22.903Z,10.35
2023-04-23T20:33:50.025Z,10.30
2023-04-23T20:36:17.214Z,10.28
2023-04-23T20:39:53.578Z,10.32
2023-04-23T20:42:21.434Z,10.22
2023-04-23T20:44:49.090Z,10.34
2023-04-23T20:47:16.596Z,10.52
2023-04-23T20:49:44.086Z,10.43
2023-04-23T20:52:13.596Z,10.31
2023-04-23T20:54:40.754Z,10.16
2023-04-23T20:57:07.934Z,10.09
2023-04-23T20:59:35.054Z,10.07
2023-04-23T21:02:02.136Z,10.02
2023-04-23T21:04:29.716Z,10.12
2023-04-23T21:06:56.990Z,9.93
2023-04-23T21:09:24.023Z,9.94
2023-04-23T21:11:51.267Z,10.06
2023-04-23T21:14:18.425Z,10.09
2023-04-23T21:16:45.456Z,10.07
2023-04-23T21:20:21.459Z,10.08
2023-04-23T21:22:48.531Z,10.00
2023-04-23T21:25:15.513Z,9.94
2023-04-23T21:27:46.005Z,10.00
2023-04-23T21:30:35.298Z,10.02
2023-04-23T21:33:02.335Z,9.95
2023-04-23T21:35:29.621Z,10.06
2023-04-23T21:37:56.675Z,9.86
2023-04-23T21:40:29.262Z,10.03
2023-04-23T21:42:56.418Z,9.64
2023-04-23T21:45:24.041Z,9.54
2023-04-23T21:47:51.725Z,9.70
2023-04-23T21:50:19.135Z,9.68
2023-04-23T21:52:46.267Z,9.73
2023-04-23T21:55:13.837Z,9.75
2023-04-23T21:57:40.850Z,9.75
2023-04-23T22:00:11.393Z,9.75
2023-04-23T22:02:46.764Z,9.85
2023-04-23T22:05:17.175Z,9.71
2023-04-23T22:07:44.752Z,9.70
2023-04-23T22:10:13.239Z,9.76
2023-04-23T22:12:41.476Z,9.65
2023-04-23T22:15:11.032Z,9.34
2023-04-23T22:17:39.151Z,9.55
2023-04-23T22:20:08.036Z,9.48
2023-04-23T22:22:36.207Z,9.73
2023-04-23T22:25:07.938Z,9.78
2023-04-23T22:27:36.590Z,9.69
2023-04-23T22:30:08.147Z,9.67
2023-04-23T22:32:36.277Z,9.76
2023-04-23T22:35:04.075Z,9.60
2023-04-23T22:37:34.316Z,9.44
2023-04-23T22:40:01.704Z,9.60
2023-04-23T22:42:28.693Z,9.63
2023-04-23T22:44:55.755Z,9.51
2023-04-23T22:47:22.952Z,9.50
2023-04-23T22:49:50.197Z,9.56
2023-04-23T22:52:17.420Z,9.83
2023-04-23T22:55:54.444Z,9.65
2023-04-23T22:58:21.572Z,9.10
2023-04-23T23:00:48.692Z,9.34
2023-04-23T23:03:15.917Z,9.29
2023-04-23T23:05:43.126Z,9.38
2023-04-23T23:08:10.212Z,9.08
2023-04-23T23:10:37.244Z,9.36
2023-04-23T23:13:04.539Z,9.38
2023-04-23T23:15:31.743Z,9.39
2023-04-23T23:17:58.866Z,9.43
2023-04-23T23:20:26.606Z,9.38
2023-04-23T23:22:53.787Z,9.55
2023-04-23T23:25:20.970Z,9.80
2023-04-23T23:27:47.956Z,9.71
2023-04-23T23:30:15.758Z,9.78
2023-04-23T23:32:42.857Z,9.65
2023-04-23T23:35:10.118Z,9.67
2023-04-23T23:37:37.258Z,9.53
2023-04-23T23:40:05.846Z,9.53
2023-04-23T23:42:32.894Z,9.55
2023-04-23T23:45:31.976Z,9.17
2023-04-23T23:47:59.570Z,9.20
2023-04-23T23:50:26.723Z,9.38
2023-04-23T23:52:54.493Z,9.35
2023-04-23T23:55:21.564Z,9.44
2023-04-23T23:57:48.629Z,9.41
